createdAt,value
2018-06-09T00:04:59.736Z,21.37
2018-06-09T00:10:03.165Z,23.02
2018-06-09T00:15:06.537Z,22.93
2018-06-09T00:20:09.912Z,22.20
2018-06-09T00:25:13.371Z,24.57
2018-06-09T00:30:16.811Z,23.35
2018-06-09T00:35:20.183Z,24.27
2018-06-09T00:40:23.590Z,23.18
2018-06-09T00:45:26.932Z,22.87
2018-06-09T00:50:29.991Z,19.42
2018-06-09T00:55:33.373Z,19.10
2018-06-09T01:00:36.797Z,20.68
2018-06-09T01:05:40.203Z,20.88
2018-06-09T01:10:43.547Z,24.63
2018-06-09T01:15:46.934Z,20.90
2018-06-09T01:20:50.282Z,21.00
2018-06-09T01:25:53.647Z,21.20
2018-06-09T01:30:57.011Z,20.60
2018-06-09T01:36:00.363Z,21.95
2018-06-09T01:41:03.703Z,22.80
2018-06-09T01:46:07.082Z,21.15
2018-06-09T01:51:10.438Z,22.90
2018-06-09T01:56:13.795Z,20.57
2018-06-09T02:01:17.188Z,21.97
2018-06-09T02:06:20.562Z,22.35
2018-06-09T02:11:23.905Z,23.12
2018-06-09T02:16:28.574Z,22.17
2018-06-09T02:21:34.700Z,24.30
2018-06-09T02:26:38.049Z,22.73
2018-06-09T02:31:41.489Z,26.68
2018-06-09T02:36:45.606Z,22.73
2018-06-09T02:41:48.896Z,23.60
2018-06-09T02:46:52.318Z,21.93
2018-06-09T02:51:55.719Z,24.25
2018-06-09T02:56:59.114Z,21.90
2018-06-09T03:02:02.481Z,23.95
2018-06-09T03:07:05.850Z,22.37
2018-06-09T03:12:09.224Z,20.90
2018-06-09T03:17:12.523Z,20.45
2018-06-09T03:22:15.875Z,21.40
2018-06-09T03:27:19.167Z,21.55
2018-06-09T03:32:22.851Z,22.27
2018-06-09T03:37:26.189Z,21.33
2018-06-09T03:42:29.545Z,22.43
2018-06-09T03:47:32.946Z,22.82
2018-06-09T03:52:37.283Z,24.35
2018-06-09T03:57:43.886Z,21.63
2018-06-09T04:02:47.234Z,22.42
2018-06-09T04:07:50.664Z,22.90
2018-06-09T04:12:54.058Z,25.10
2018-06-09T04:17:57.457Z,24.10
2018-06-09T04:23:00.850Z,23.55
2018-06-09T04:28:04.055Z,23.57
2018-06-09T04:33:07.474Z,22.50
2018-06-09T04:38:10.788Z,19.15
2018-06-09T04:43:14.193Z,24.20
2018-06-09T04:48:17.609Z,23.10
2018-06-09T04:53:21.701Z,21.57
2018-06-09T04:58:25.170Z,21.53
2018-06-09T05:03:28.560Z,23.35
2018-06-09T05:08:31.920Z,23.92
2018-06-09T05:13:35.363Z,23.53
2018-06-09T05:18:38.793Z,20.92
2018-06-09T05:23:42.542Z,22.80
2018-06-09T05:28:45.963Z,22.13
2018-06-09T05:33:50.582Z,21.33
2018-06-09T05:38:53.961Z,19.73
2018-06-09T05:43:57.365Z,18.27
2018-06-09T05:49:00.752Z,18.00
2018-06-09T05:54:04.398Z,16.77
2018-06-09T05:59:07.819Z,18.55
2018-06-09T06:04:11.182Z,18.65
2018-06-09T06:09:14.563Z,16.67
2018-06-09T06:14:17.939Z,17.00
2018-06-09T06:19:21.490Z,17.50
2018-06-09T06:24:24.889Z,20.10
2018-06-09T06:29:28.305Z,18.67
2018-06-09T06:34:31.734Z,18.30
2018-06-09T06:39:36.110Z,17.00
2018-06-09T06:44:39.499Z,18.05
2018-06-09T06:49:42.894Z,18.77
2018-06-09T06:54:46.297Z,17.47
2018-06-09T06:59:49.711Z,17.53
2018-06-09T07:04:53.050Z,17.23
2018-06-09T07:09:56.441Z,16.67
2018-06-09T07:14:59.832Z,16.35
2018-06-09T07:20:03.342Z,17.40
2018-06-09T07:25:06.741Z,17.00
2018-06-09T07:30:10.186Z,35.00
2018-06-09T07:35:13.663Z,16.07
2018-06-09T07:40:17.119Z,15.45
2018-06-09T07:45:20.509Z,14.78
2018-06-09T07:50:23.861Z,13.78
2018-06-09T07:55:27.293Z,14.40
2018-06-09T08:00:30.688Z,14.90
2018-06-09T08:05:34.090Z,15.03
2018-06-09T08:10:37.479Z,14.47
2018-06-09T08:15:40.943Z,15.10
2018-06-09T08:20:44.371Z,14.43
2018-06-09T08:25:47.843Z,12.53
2018-06-09T08:30:51.168Z,13.40
2018-06-09T08:35:54.530Z,13.38
2018-06-09T08:40:57.941Z,13.28
2018-06-09T08:46:01.298Z,13.60
2018-06-09T08:51:04.772Z,12.60
2018-06-09T08:56:08.163Z,13.40
2018-06-09T09:01:11.562Z,12.23
2018-06-09T09:06:14.932Z,12.55
2018-06-09T09:11:18.322Z,12.10
2018-06-09T09:16:21.760Z,11.70
2018-06-09T09:21:25.195Z,10.65
2018-06-09T09:26:28.545Z,11.70
2018-06-09T09:31:31.971Z,11.93
2018-06-09T09:36:35.322Z,11.83
2018-06-09T09:41:38.738Z,11.35
2018-06-09T09:46:42.630Z,11.63
2018-06-09T09:51:45.998Z,11.48
2018-06-09T09:56:49.376Z,10.75
2018-06-09T10:01:52.724Z,12.00
2018-06-09T10:06:56.162Z,11.65
2018-06-09T10:11:59.512Z,12.07
2018-06-09T10:17:02.958Z,12.40
2018-06-09T10:22:06.325Z,12.05
2018-06-09T10:27:09.727Z,12.70
2018-06-09T10:32:12.806Z,11.30
2018-06-09T10:37:16.209Z,11.25
2018-06-09T10:42:19.591Z,11.40
2018-06-09T10:47:22.963Z,11.20
2018-06-09T10:52:26.393Z,10.60
2018-06-09T10:57:29.894Z,10.83
2018-06-09T11:02:33.452Z,10.18
2018-06-09T11:07:36.846Z,10.50
2018-06-09T11:12:40.228Z,9.73
2018-06-09T11:17:43.589Z,9.83
2018-06-09T11:22:46.965Z,9.80
2018-06-09T11:27:50.976Z,9.85
2018-06-09T11:32:55.144Z,9.95
2018-06-09T11:37:58.564Z,10.23
2018-06-09T11:43:01.971Z,9.50
2018-06-09T11:48:05.384Z,10.00
2018-06-09T11:53:09.869Z,10.05
2018-06-09T11:58:13.283Z,10.40
2018-06-09T12:03:16.646Z,10.75
2018-06-09T12:08:20.090Z,10.50
2018-06-09T12:13:24.250Z,11.23
2018-06-09T12:18:27.666Z,10.43
2018-06-09T12:23:31.049Z,10.30
2018-06-09T12:28:34.484Z,9.78
2018-06-09T12:33:37.891Z,9.45
2018-06-09T12:38:41.344Z,8.70
2018-06-09T12:43:44.746Z,8.20
2018-06-09T12:48:48.199Z,8.30
2018-06-09T12:53:51.618Z,7.95
2018-06-09T12:58:55.021Z,8.38
2018-06-09T13:03:58.339Z,9.90
2018-06-09T13:09:01.764Z,8.05
2018-06-09T13:14:05.198Z,7.70
2018-06-09T13:19:08.523Z,6.85
2018-06-09T13:24:12.383Z,7.80
2018-06-09T13:29:19.010Z,7.78
2018-06-09T13:34:23.231Z,8.40
2018-06-09T13:39:27.111Z,6.67
2018-06-09T13:44:31.103Z,8.10
2018-06-09T13:49:34.494Z,6.25
2018-06-09T13:54:37.929Z,7.30
2018-06-09T13:59:41.265Z,7.40
2018-06-09T14:04:44.617Z,7.28
2018-06-09T14:09:48.055Z,7.00
2018-06-09T14:14:51.441Z,6.40
2018-06-09T14:19:54.782Z,7.60
2018-06-09T14:24:58.343Z,7.33
2018-06-09T14:30:01.740Z,6.90
2018-06-09T14:35:05.151Z,7.60
2018-06-09T14:40:08.548Z,7.70
2018-06-09T14:45:11.942Z,7.60
2018-06-09T14:50:15.317Z,8.10
2018-06-09T14:55:18.749Z,8.13
2018-06-09T15:00:22.097Z,7.45
2018-06-09T15:05:25.465Z,8.30
2018-06-09T15:10:28.923Z,8.08
2018-06-09T15:15:32.966Z,8.35
2018-06-09T15:20:36.333Z,8.30
2018-06-09T15:25:39.695Z,10.43
2018-06-09T15:30:43.071Z,10.30
2018-06-09T15:35:46.442Z,15.30
2018-06-09T15:40:49.776Z,10.50
2018-06-09T15:45:53.121Z,10.20
2018-06-09T15:50:56.496Z,11.25
2018-06-09T15:55:59.849Z,11.30
2018-06-09T16:01:03.237Z,10.68
2018-06-09T16:06:06.616Z,11.53
2018-06-09T16:11:09.976Z,10.90
2018-06-09T16:16:13.446Z,11.70
2018-06-09T16:21:16.815Z,12.15
2018-06-09T16:26:20.170Z,12.37
2018-06-09T16:31:23.658Z,12.30
2018-06-09T16:36:27.005Z,11.90
2018-06-09T16:41:30.411Z,12.77
2018-06-09T16:46:33.773Z,12.90
2018-06-09T16:51:37.195Z,11.95
2018-06-09T16:56:40.619Z,12.00
2018-06-09T17:01:44.074Z,13.43
2018-06-09T17:06:50.358Z,15.32
2018-06-09T17:11:54.480Z,13.28
2018-06-09T17:16:58.063Z,12.40
2018-06-09T17:22:01.554Z,12.93
2018-06-09T17:27:05.022Z,12.98
2018-06-09T17:32:08.497Z,12.98
2018-06-09T17:37:12.002Z,14.43
2018-06-09T17:42:15.621Z,13.60
2018-06-09T17:47:19.540Z,14.13
2018-06-09T17:52:23.038Z,14.90
2018-06-09T17:57:26.518Z,12.90
2018-06-09T18:02:29.901Z,12.40
2018-06-09T18:07:33.619Z,11.70
2018-06-09T18:12:37.339Z,11.22
2018-06-09T18:17:41.802Z,10.68
2018-06-09T18:22:45.904Z,9.33
2018-06-09T18:27:49.429Z,11.28
2018-06-09T18:32:53.280Z,7.97
2018-06-09T18:37:57.020Z,8.13
2018-06-09T18:43:00.928Z,7.30
2018-06-09T18:48:04.454Z,8.00
2018-06-09T18:53:08.031Z,10.38
2018-06-09T18:58:11.639Z,8.78
2018-06-09T19:03:15.515Z,8.10
2018-06-09T19:08:19.054Z,7.23
2018-06-09T19:13:22.616Z,9.30
2018-06-09T19:18:26.161Z,9.38
2018-06-09T19:23:29.975Z,9.07
2018-06-09T19:28:34.266Z,11.03
2018-06-09T19:33:37.727Z,9.30
2018-06-09T19:38:41.161Z,10.10
2018-06-09T19:43:44.595Z,10.05
2018-06-09T19:48:48.105Z,9.28
2018-06-09T19:53:52.242Z,9.80
2018-06-09T19:58:57.750Z,9.50
2018-06-09T20:04:01.169Z,9.75
2018-06-09T20:09:06.980Z,9.97
2018-06-09T20:14:10.426Z,9.10
2018-06-09T20:19:13.834Z,8.63
2018-06-09T20:24:17.204Z,8.97
2018-06-09T20:29:20.666Z,9.28
2018-06-09T20:34:24.110Z,9.80
2018-06-09T20:39:27.562Z,9.10
2018-06-09T20:44:30.931Z,9.30
2018-06-09T20:49:34.322Z,9.93
2018-06-09T20:54:37.788Z,10.90
2018-06-09T20:59:42.174Z,10.55
2018-06-09T21:04:45.562Z,10.10
2018-06-09T21:09:48.967Z,12.03
2018-06-09T21:14:53.343Z,11.78
2018-06-09T21:19:57.166Z,11.95
2018-06-09T21:25:00.589Z,13.15
2018-06-09T21:30:10.008Z,12.45
2018-06-09T21:35:30.163Z,13.50
2018-06-09T21:40:38.901Z,13.50
2018-06-09T21:45:47.530Z,12.53
2018-06-09T21:50:51.006Z,14.17
2018-06-09T21:55:54.374Z,13.22
2018-06-09T22:00:57.762Z,13.58
2018-06-09T22:06:01.170Z,13.00
2018-06-09T22:11:04.599Z,12.80
2018-06-09T22:16:08.405Z,13.93
2018-06-09T22:21:11.793Z,12.98
2018-06-09T22:26:15.901Z,15.00
2018-06-09T22:31:19.286Z,15.35
2018-06-09T22:36:22.750Z,15.80
2018-06-09T22:41:26.148Z,16.00
2018-06-09T22:46:29.540Z,17.50
2018-06-09T22:51:32.867Z,16.57
2018-06-09T22:56:36.219Z,17.62
2018-06-09T23:01:39.668Z,16.40
2018-06-09T23:06:42.982Z,16.23
2018-06-09T23:11:46.334Z,16.37
2018-06-09T23:16:49.709Z,17.40
2018-06-09T23:21:53.008Z,16.82
2018-06-09T23:26:56.352Z,18.57
2018-06-09T23:31:59.708Z,17.12
2018-06-09T23:37:13.808Z,18.77
2018-06-09T23:42:17.194Z,19.80
2018-06-09T23:47:20.725Z,22.10
2018-06-09T23:52:24.072Z,22.07
2018-06-09T23:57:27.451Z,21.82
